CST,Max TemperatureF,Mean TemperatureF,Min TemperatureF,Max Dew PointF,MeanDew PointF,Min DewpointF,Max Humidity, Mean Humidity, Min Humidity, Max Sea Level PressureIn, Mean Sea Level PressureIn, Min Sea Level PressureIn, Max VisibilityMiles, Mean VisibilityMiles, Min VisibilityMiles, Max Wind SpeedMPH, Mean Wind SpeedMPH, Max Gust SpeedMPH,PrecipitationIn, CloudCover, Events, WindDirDegrees
2012-11-1,46,38,30,39,30,23,93,73,43,30.05,30.00,29.96,10,9,3,18,9,23,0.00,3,,27
2012-11-2,37,32,28,28,26,23,87,74,65,30.12,30.04,29.99,10,10,10,12,8,,0.00,5,,96
2012-11-3,46,38,30,37,32,27,93,78,61,30.18,30.15,30.11,10,10,5,8,3,,0.00,7,Rain,306
2012-11-4,39,37,35,37,35,34,100,93,87,30.17,30.11,30.06,10,6,0,8,4,,0.07,8,Fog-Rain,71
2012-11-5,39,37,35,36,34,34,100,94,81,30.15,30.08,29.88,10,6,0,17,8,22,0.01,8,Fog-Rain,320
2012-11-6,46,40,35,37,34,30,100,76,53,30.04,29.92,29.81,10,10,5,29,16,41,0.00,6,Rain,316
2012-11-7,48,36,24,34,30,25,100,77,50,30.11,30.03,29.91,10,10,1,16,7,22,0.00,0,,205
2012-11-8,55,45,35,37,33,30,93,72,44,29.98,29.90,29.82,10,10,7,29,15,36,0.00,2,,99
2012-11-9,53,44,35,43,38,34,100,84,58,29.96,29.87,29.73,10,7,0,20,14,25,0.00,6,Fog,89
2012-11-10,57,46,35,54,45,34,100,90,81,29.71,29.54,29.46,10,7,2,21,15,29,0.18,8,Rain-Thunderstorm,197
2012-11-11,32,24,17,30,15,10,100,75,63,29.98,29.85,29.65,10,10,3,25,19,32,0.00,6,Snow,304
2012-11-12,28,22,15,16,13,10,93,73,51,30.27,30.11,29.96,10,10,5,25,17,32,0.00,3,Snow,294
2012-11-13,44,30,15,27,20,10,86,64,39,30.26,30.23,30.19,10,10,10,14,5,,0.00,2,,203
2012-11-14,51,38,24,30,27,21,86,66,40,30.23,30.17,30.08,10,10,10,13,4,,0.00,2,,203
2012-11-15,44,34,21,32,25,16,100,73,42,30.45,30.28,30.08,10,10,10,13,7,18,0.00,0,,348
2012-11-16,44,32,19,30,21,12,86,65,39,30.45,30.32,30.19,10,10,10,18,8,23,0.00,0,,158
2012-11-17,55,45,35,36,34,30,87,67,47,30.20,30.11,30.04,10,10,7,28,16,34,0.00,0,,189
2012-11-18,57,47,37,37,33,30,81,63,44,30.04,30.00,29.96,10,10,10,18,15,24,0.00,0,,188
2012-11-19,55,45,30,39,36,28,93,72,54,30.12,30.01,29.94,10,10,10,16,10,20,0.00,0,,336
2012-11-20,55,40,26,34,28,19,100,64,25,30.17,30.09,29.97,10,9,5,16,5,20,0.00,0,,174
2012-11-21,68,52,35,39,35,30,87,57,24,29.97,29.83,29.65,10,10,10,22,12,26,0.00,0,,200
2012-11-22,53,40,24,37,31,16,93,73,54,30.18,29.85,29.62,10,10,7,30,16,40,0.00,4,Rain,303
2012-11-23,24,18,12,16,12,7,85,72,59,30.42,30.34,30.19,10,10,10,31,18,41,0.00,4,Snow,335
2012-11-24,35,24,12,21,14,9,86,65,44,30.32,29.99,29.79,10,10,10,24,8,30,0.00,3,,197
2012-11-25,33,30,26,27,22,19,86,74,60,30.16,29.98,29.83,10,10,10,14,9,17,0.00,3,,338
2012-11-26,24,17,10,19,9,5,86,71,50,30.41,30.32,30.17,10,10,10,14,10,18,0.00,2,,335
2012-11-27,35,24,12,25,18,7,100,78,65,30.30,30.17,30.06,10,10,10,15,9,17,0.00,0,,246
2012-11-28,39,26,12,27,20,10,100,78,52,30.29,30.16,29.99,10,9,1,17,5,20,0.00,0,,189
2012-11-29,41,29,17,25,23,16,93,73,53,30.00,29.97,29.92,10,10,10,14,6,20,0.00,0,,90
2012-11-30,42,32,23,32,27,21,100,84,61,30.10,30.00,29.90,10,6,0,16,8,20,0.00,2,Fog,118